OING

Details ICAO OING (GBT)
Name GORGAN
Region Iran
Timezone Asia/Tehran (UTC+3.5)
Plans Departing 3
Arriving 5
Stats Elevation -24 ft / -7 m (AMSL)
Location 36.909379° 54.401339°
Runways 1
Magnetic Variation 4.891° E
Sunrise 2017-12-17 03:30:44 UTC / 2017-12-17 07:00:44 Local
Sunset 2017-12-17 13:08:54 UTC / 2017-12-17 16:38:54 Local
Advertisement - Login to hide

Runways

ID Width Length Bearing (true) Bearing (mag) Surface Threshold Offset Overrun Length
14 148 ft / 45 m 7,540 ft / 2,298 m 134.03° 129.14° Asphalt 0 ft / 0 m 0 ft / 0 m
32 148 ft / 45 m 7,540 ft / 2,298 m 314.04° 309.15° Asphalt 0 ft / 0 m 197 ft / 60 m

Map

Weather


0- 5 10 15 20 25 30 35+ Temperature / ° C

Clouds and Precipitation
Forecast for 2017-12-17 18:00 UTC. Updated an hour ago

Ground ~20,000 ft ~40,000 ft Winds

METAR

OING 171800Z 00000KT CAVOK 04/03 Q1025

TAF

Not found

Frequencies

Tower 121.85 MHz TWR
Tower 118.75 MHz TWR
Warning: Do not use this data for real-world aviation or navigation. No guarantee of current accuracy is given.